createdAt,value
2018-12-07T00:01:12.142Z,8.70
2018-12-07T00:03:40.267Z,8.70
2018-12-07T00:06:08.429Z,8.80
2018-12-07T00:08:37.278Z,8.70
2018-12-07T00:11:05.679Z,8.60
2018-12-07T00:13:33.813Z,8.60
2018-12-07T00:16:01.971Z,8.60
2018-12-07T00:18:30.196Z,8.50
2018-12-07T00:20:58.352Z,8.60
2018-12-07T00:23:26.575Z,8.70
2018-12-07T00:25:54.748Z,8.60
2018-12-07T00:28:24.688Z,8.60
2018-12-07T00:30:52.856Z,8.70
2018-12-07T00:33:20.987Z,8.70
2018-12-07T00:35:49.152Z,8.70
2018-12-07T00:38:17.399Z,8.80
2018-12-07T00:40:45.574Z,8.80
2018-12-07T00:43:13.735Z,8.80
2018-12-07T00:45:41.895Z,8.80
2018-12-07T00:48:10.112Z,8.90
2018-12-07T00:50:38.275Z,8.80
2018-12-07T00:53:06.419Z,8.90
2018-12-07T00:55:37.872Z,8.80
2018-12-07T00:58:06.144Z,8.90
2018-12-07T01:00:34.451Z,8.80
2018-12-07T01:03:02.589Z,8.80
2018-12-07T01:05:30.876Z,8.80
2018-12-07T01:07:59.083Z,8.90
2018-12-07T01:10:27.243Z,8.90
2018-12-07T01:12:55.383Z,9.00
2018-12-07T01:15:23.608Z,9.00
2018-12-07T01:17:51.896Z,9.00
2018-12-07T01:20:20.064Z,9.20
2018-12-07T01:22:48.205Z,9.40
2018-12-07T01:25:16.534Z,9.60
2018-12-07T01:27:45.410Z,9.60
2018-12-07T01:30:13.566Z,9.70
2018-12-07T01:32:41.708Z,9.70
2018-12-07T01:35:09.868Z,9.70
2018-12-07T01:37:38.065Z,9.70
2018-12-07T01:40:06.461Z,9.80
2018-12-07T01:42:34.597Z,9.70
2018-12-07T01:45:02.886Z,9.80
2018-12-07T01:47:31.082Z,9.90
2018-12-07T01:49:59.256Z,9.90
2018-12-07T01:52:27.483Z,9.90
2018-12-07T01:54:55.621Z,9.90
2018-12-07T01:57:23.937Z,10.00
2018-12-07T01:59:52.076Z,10.00
2018-12-07T02:02:20.241Z,10.00
2018-12-07T02:04:48.388Z,10.00
2018-12-07T02:07:25.771Z,9.90
2018-12-07T02:09:53.911Z,10.00
2018-12-07T02:12:22.083Z,9.90
2018-12-07T02:14:50.236Z,10.00
2018-12-07T02:17:18.431Z,9.90
2018-12-07T02:19:46.567Z,9.90
2018-12-07T02:22:14.723Z,9.90
2018-12-07T02:24:42.869Z,9.90
2018-12-07T02:27:11.345Z,9.90
2018-12-07T02:29:39.485Z,9.90
2018-12-07T02:32:07.711Z,9.80
2018-12-07T02:34:35.852Z,9.90
2018-12-07T02:37:04.034Z,10.00
2018-12-07T02:39:32.181Z,10.00
2018-12-07T02:42:00.356Z,10.00
2018-12-07T02:44:28.488Z,9.90
2018-12-07T02:46:56.735Z,10.00
2018-12-07T02:49:24.885Z,10.00
2018-12-07T02:51:53.054Z,10.10
2018-12-07T02:54:21.276Z,10.10
2018-12-07T02:56:49.576Z,10.20
2018-12-07T02:59:17.720Z,10.20
2018-12-07T03:01:45.892Z,10.20
2018-12-07T03:04:14.027Z,10.20
2018-12-07T03:06:42.197Z,10.20
2018-12-07T03:09:10.345Z,10.20
2018-12-07T03:11:38.520Z,10.20
2018-12-07T03:14:06.655Z,10.30
2018-12-07T03:16:34.815Z,10.20
2018-12-07T03:19:02.970Z,10.20
2018-12-07T03:21:31.127Z,10.10
2018-12-07T03:23:59.267Z,10.20
2018-12-07T03:26:28.608Z,10.30
2018-12-07T03:28:56.765Z,10.30
2018-12-07T03:31:24.937Z,10.30
2018-12-07T03:33:53.235Z,10.30
2018-12-07T03:36:21.565Z,10.30
2018-12-07T03:38:49.703Z,10.30
2018-12-07T03:41:17.872Z,10.30
2018-12-07T03:43:46.020Z,10.30
2018-12-07T03:46:14.779Z,10.30
2018-12-07T03:48:42.928Z,10.20
2018-12-07T03:51:11.119Z,10.20
2018-12-07T03:53:39.260Z,10.20
2018-12-07T03:56:07.539Z,10.30
2018-12-07T03:58:35.709Z,10.30
2018-12-07T04:01:03.847Z,10.30
2018-12-07T04:03:32.017Z,10.30
2018-12-07T04:06:00.440Z,10.40
2018-12-07T04:08:28.606Z,10.40
2018-12-07T04:10:56.792Z,10.40
2018-12-07T04:13:24.993Z,10.40
2018-12-07T04:15:53.240Z,10.30
2018-12-07T04:18:21.403Z,10.40
2018-12-07T04:20:49.551Z,10.40
2018-12-07T04:23:17.707Z,10.40
2018-12-07T04:25:45.937Z,10.40
2018-12-07T04:28:14.095Z,10.40
2018-12-07T04:30:42.245Z,10.40
2018-12-07T04:33:10.419Z,10.40
2018-12-07T04:35:38.739Z,10.40
2018-12-07T04:38:06.911Z,10.40
2018-12-07T04:40:35.128Z,10.40
2018-12-07T04:43:03.300Z,10.40
2018-12-07T04:45:31.507Z,10.40
2018-12-07T04:47:59.683Z,10.30
2018-12-07T04:50:27.820Z,10.40
2018-12-07T04:52:56.205Z,10.40
2018-12-07T04:55:24.440Z,10.40
2018-12-07T04:57:52.614Z,10.40
2018-12-07T05:00:20.754Z,10.40
2018-12-07T05:02:48.916Z,10.40
2018-12-07T05:05:17.228Z,10.40
2018-12-07T05:07:45.393Z,10.40
2018-12-07T05:10:14.633Z,10.40
2018-12-07T05:12:42.953Z,10.40
2018-12-07T05:15:11.166Z,10.40
2018-12-07T05:17:39.356Z,10.40
2018-12-07T05:20:07.591Z,10.80
2018-12-07T05:22:35.776Z,11.20
2018-12-07T05:25:04.518Z,11.10
2018-12-07T05:27:32.698Z,11.00
2018-12-07T05:30:00.843Z,10.80
2018-12-07T05:32:29.003Z,10.80
2018-12-07T05:34:57.273Z,10.70
2018-12-07T05:37:25.454Z,10.70
2018-12-07T05:39:53.601Z,10.70
2018-12-07T05:42:21.769Z,10.70
2018-12-07T05:44:49.946Z,10.90
2018-12-07T05:47:18.118Z,11.50
2018-12-07T05:49:46.269Z,11.60
2018-12-07T05:52:14.436Z,11.60
2018-12-07T05:54:42.589Z,11.30
2018-12-07T05:57:10.740Z,11.10
2018-12-07T05:59:38.912Z,11.00
2018-12-07T06:02:07.065Z,10.90
2018-12-07T06:04:35.569Z,10.90
2018-12-07T06:07:03.716Z,10.80
2018-12-07T06:09:31.959Z,10.80
2018-12-07T06:12:00.100Z,10.80
2018-12-07T06:14:28.283Z,10.70
2018-12-07T06:16:56.431Z,10.70
2018-12-07T06:19:24.601Z,10.70
2018-12-07T06:21:52.747Z,10.70
2018-12-07T06:24:20.948Z,10.70
2018-12-07T06:26:49.095Z,10.70
2018-12-07T06:29:17.267Z,10.70
2018-12-07T06:31:45.421Z,10.70
2018-12-07T06:34:13.603Z,10.70
2018-12-07T06:36:41.765Z,10.60
2018-12-07T06:39:09.927Z,10.60
2018-12-07T06:41:38.098Z,10.60
2018-12-07T06:44:06.255Z,10.60
2018-12-07T06:46:34.400Z,10.50
2018-12-07T06:49:07.960Z,10.50
2018-12-07T06:51:36.108Z,10.60
2018-12-07T06:54:04.275Z,10.60
2018-12-07T06:56:32.434Z,10.60
2018-12-07T06:59:00.595Z,10.60
2018-12-07T07:01:28.747Z,10.60
2018-12-07T07:03:56.944Z,10.60
2018-12-07T07:06:25.101Z,10.60
2018-12-07T07:08:53.268Z,10.70
2018-12-07T07:11:21.420Z,10.60
2018-12-07T07:13:49.686Z,10.60
2018-12-07T07:16:23.124Z,10.60
2018-12-07T07:18:48.008Z,10.60
2018-12-07T07:21:16.151Z,10.60
2018-12-07T07:23:44.535Z,10.60
2018-12-07T07:26:12.676Z,10.60
2018-12-07T07:28:40.851Z,10.60
2018-12-07T07:31:08.987Z,10.60
2018-12-07T07:33:37.229Z,10.60
2018-12-07T07:36:05.372Z,10.60
2018-12-07T07:38:33.538Z,10.60
2018-12-07T07:41:01.680Z,10.50
2018-12-07T07:43:30.131Z,10.50
2018-12-07T07:45:58.280Z,10.40
2018-12-07T07:48:26.456Z,10.30
2018-12-07T07:50:54.626Z,10.40
2018-12-07T07:53:22.837Z,10.40
2018-12-07T07:55:50.984Z,10.50
2018-12-07T07:58:19.160Z,10.50
2018-12-07T08:00:47.303Z,10.60
2018-12-07T08:03:15.660Z,10.60
2018-12-07T08:05:43.804Z,10.60
2018-12-07T08:08:11.968Z,10.70
2018-12-07T08:10:40.125Z,10.70
2018-12-07T08:13:08.432Z,10.70
2018-12-07T08:15:36.593Z,10.70
2018-12-07T08:18:04.808Z,10.70
2018-12-07T08:20:32.979Z,10.70
2018-12-07T08:23:01.244Z,10.70
2018-12-07T08:25:29.408Z,10.80
2018-12-07T08:27:57.570Z,10.80
2018-12-07T08:30:25.871Z,10.80
2018-12-07T08:32:54.176Z,10.90
2018-12-07T08:35:22.345Z,10.90
2018-12-07T08:37:50.487Z,10.90
2018-12-07T08:40:18.664Z,10.90
2018-12-07T08:42:47.417Z,11.00
2018-12-07T08:45:15.856Z,11.00
2018-12-07T08:47:44.024Z,11.10
2018-12-07T08:50:12.263Z,11.10
2018-12-07T08:52:40.726Z,11.10
2018-12-07T08:55:08.910Z,11.20
2018-12-07T08:57:37.079Z,11.20
2018-12-07T09:00:06.987Z,11.20
2018-12-07T09:02:35.149Z,11.20
2018-12-07T09:05:03.825Z,11.30
2018-12-07T09:07:31.972Z,11.20
2018-12-07T09:10:00.212Z,11.30
2018-12-07T09:12:28.425Z,11.30
2018-12-07T09:14:56.605Z,11.30
2018-12-07T09:17:24.748Z,11.30
2018-12-07T09:19:52.927Z,11.30
2018-12-07T09:22:21.171Z,11.30
2018-12-07T09:24:49.344Z,11.40
2018-12-07T09:27:17.495Z,11.40
2018-12-07T09:29:45.667Z,11.30
2018-12-07T09:32:13.885Z,11.30
2018-12-07T09:34:42.133Z,11.30
2018-12-07T09:37:10.283Z,11.30
2018-12-07T09:39:38.447Z,11.30
2018-12-07T09:42:06.927Z,11.30
2018-12-07T09:44:35.116Z,11.40
2018-12-07T09:47:03.344Z,11.40
2018-12-07T09:49:31.516Z,11.40
2018-12-07T09:52:01.496Z,11.40
2018-12-07T09:54:29.676Z,11.40
2018-12-07T09:56:57.836Z,11.30
2018-12-07T09:59:26.008Z,11.40
2018-12-07T10:01:54.307Z,11.40
2018-12-07T10:04:22.488Z,11.40
2018-12-07T10:06:50.645Z,11.40
2018-12-07T10:09:18.834Z,11.40
2018-12-07T10:11:48.439Z,11.50
2018-12-07T10:14:16.616Z,11.40
2018-12-07T10:16:44.875Z,11.50
2018-12-07T10:19:13.048Z,11.60
2018-12-07T10:21:41.252Z,11.50
2018-12-07T10:24:09.425Z,11.60
2018-12-07T10:26:37.576Z,11.50
2018-12-07T10:29:05.751Z,11.60
2018-12-07T10:31:33.896Z,11.60
2018-12-07T10:34:02.071Z,11.60
2018-12-07T10:36:30.232Z,11.70
2018-12-07T10:38:58.393Z,11.60
2018-12-07T10:41:26.616Z,11.60
2018-12-07T10:43:54.789Z,11.60
2018-12-07T10:46:22.932Z,11.70
2018-12-07T10:48:51.099Z,11.80
2018-12-07T10:51:19.274Z,11.80
2018-12-07T10:53:47.423Z,11.80
2018-12-07T10:56:15.593Z,11.80
2018-12-07T10:58:49.519Z,11.90
2018-12-07T11:01:23.511Z,12.00
2018-12-07T11:03:57.312Z,12.00
2018-12-07T11:06:31.084Z,12.10
2018-12-07T11:09:03.883Z,12.20
2018-12-07T11:11:38.044Z,12.20
2018-12-07T11:14:11.189Z,12.30
2018-12-07T11:16:45.054Z,12.30
2018-12-07T11:19:19.044Z,12.30
2018-12-07T11:21:53.106Z,12.40
2018-12-07T11:24:26.917Z,12.40
2018-12-07T11:27:00.820Z,12.40
2018-12-07T11:29:48.584Z,12.30
2018-12-07T11:32:18.709Z,12.40
2018-12-07T11:34:48.863Z,12.40
2018-12-07T11:37:17.007Z,12.40
2018-12-07T11:39:45.259Z,12.30
2018-12-07T11:42:13.443Z,12.30
2018-12-07T11:44:41.608Z,12.40
2018-12-07T11:47:09.783Z,12.40
2018-12-07T11:49:37.936Z,12.40
2018-12-07T11:52:06.224Z,12.40
2018-12-07T11:54:34.379Z,12.30
2018-12-07T11:57:02.564Z,12.30
2018-12-07T11:59:30.724Z,12.30
2018-12-07T12:01:58.952Z,12.30
2018-12-07T12:04:27.124Z,12.30
2018-12-07T12:06:55.317Z,12.30
2018-12-07T12:09:23.477Z,12.30
2018-12-07T12:11:51.760Z,12.50
2018-12-07T12:14:19.908Z,13.00
2018-12-07T12:16:48.095Z,13.30
2018-12-07T12:19:16.232Z,13.90
2018-12-07T12:21:44.556Z,14.10
2018-12-07T12:24:12.706Z,18.30
2018-12-07T12:26:40.872Z,16.40
2018-12-07T12:29:09.067Z,14.80
2018-12-07T12:31:37.258Z,13.70
2018-12-07T12:34:05.573Z,13.40
2018-12-07T12:36:33.753Z,13.20
2018-12-07T12:39:01.909Z,13.10
2018-12-07T12:41:30.255Z,13.00
2018-12-07T12:43:58.471Z,12.90
2018-12-07T12:46:26.661Z,12.70
2018-12-07T12:48:54.816Z,12.60
2018-12-07T12:51:23.051Z,12.50
2018-12-07T12:53:51.199Z,12.40
2018-12-07T12:56:19.381Z,12.40
2018-12-07T12:58:47.546Z,12.20
2018-12-07T13:01:15.859Z,12.10
2018-12-07T13:03:44.021Z,12.00
2018-12-07T13:06:12.191Z,11.90
2018-12-07T13:08:40.335Z,11.90
2018-12-07T13:11:08.560Z,11.80
2018-12-07T13:13:36.706Z,11.80
2018-12-07T13:16:04.879Z,11.90
2018-12-07T13:18:33.697Z,11.90
2018-12-07T13:21:02.164Z,11.90
2018-12-07T13:23:30.316Z,11.80
2018-12-07T13:25:58.490Z,11.80
2018-12-07T13:28:26.640Z,11.70
2018-12-07T13:30:54.867Z,11.80
2018-12-07T13:33:23.019Z,11.80
2018-12-07T13:35:51.180Z,11.80
2018-12-07T13:38:19.352Z,11.70
2018-12-07T13:40:47.655Z,11.70
2018-12-07T13:43:15.938Z,11.60
2018-12-07T13:45:44.213Z,11.60
2018-12-07T13:48:12.611Z,11.70
2018-12-07T13:50:41.132Z,11.70
2018-12-07T13:53:09.461Z,11.70
2018-12-07T13:55:37.759Z,11.80
2018-12-07T13:58:06.079Z,11.90
2018-12-07T14:00:34.530Z,11.80
2018-12-07T14:03:03.300Z,11.80
2018-12-07T14:05:32.413Z,11.80
2018-12-07T14:08:01.101Z,11.70
2018-12-07T14:10:29.623Z,11.70
2018-12-07T14:12:57.997Z,11.70
2018-12-07T14:15:26.237Z,11.60
2018-12-07T14:17:54.498Z,11.60
2018-12-07T14:20:24.309Z,11.60
2018-12-07T14:22:52.696Z,11.60
2018-12-07T14:25:20.975Z,11.60
2018-12-07T14:27:49.295Z,11.50
2018-12-07T14:30:17.760Z,11.50
2018-12-07T14:32:46.079Z,11.50
2018-12-07T14:35:14.371Z,11.40
2018-12-07T14:37:42.607Z,11.40
2018-12-07T14:40:11.176Z,11.50
2018-12-07T14:42:39.433Z,11.40
2018-12-07T14:45:07.905Z,11.40
2018-12-07T14:47:36.278Z,11.40
2018-12-07T14:50:05.254Z,11.50
2018-12-07T14:52:33.619Z,11.50
2018-12-07T14:55:01.859Z,11.50
2018-12-07T14:57:30.281Z,11.40
2018-12-07T14:59:58.786Z,11.40
2018-12-07T15:02:27.165Z,11.50
2018-12-07T15:04:55.467Z,11.50
2018-12-07T15:07:23.942Z,11.40
2018-12-07T15:09:52.461Z,11.40
2018-12-07T15:12:20.954Z,11.50
2018-12-07T15:14:49.745Z,11.50
2018-12-07T15:17:18.020Z,11.50
2018-12-07T15:19:47.710Z,11.40
2018-12-07T15:22:15.990Z,11.40
2018-12-07T15:24:44.236Z,11.30
2018-12-07T15:27:12.485Z,11.20
2018-12-07T15:29:40.767Z,11.20
2018-12-07T15:32:09.020Z,11.10
2018-12-07T15:34:37.299Z,11.10
2018-12-07T15:37:05.557Z,11.10
2018-12-07T15:39:33.942Z,11.00
2018-12-07T15:42:02.610Z,10.80
2018-12-07T15:44:31.235Z,10.70
2018-12-07T15:46:59.718Z,10.70
2018-12-07T15:49:28.160Z,10.70
2018-12-07T15:51:56.350Z,10.60
2018-12-07T15:54:24.741Z,10.50
2018-12-07T15:56:53.195Z,10.60
2018-12-07T15:59:21.423Z,10.50
2018-12-07T16:01:49.599Z,10.40
2018-12-07T16:04:17.909Z,10.30
2018-12-07T16:06:46.170Z,10.20
2018-12-07T16:09:14.532Z,10.10
2018-12-07T16:11:42.762Z,10.00
2018-12-07T16:14:11.049Z,10.00
2018-12-07T16:16:39.425Z,10.00
2018-12-07T16:19:07.847Z,9.90
2018-12-07T16:21:36.178Z,9.80
2018-12-07T16:24:04.595Z,9.80
2018-12-07T16:26:32.966Z,9.70
2018-12-07T16:29:01.382Z,9.70
2018-12-07T16:31:29.786Z,9.40
2018-12-07T16:33:58.085Z,9.20
2018-12-07T16:36:26.521Z,9.40
2018-12-07T16:38:55.045Z,9.30
2018-12-07T16:41:23.276Z,8.90
2018-12-07T16:43:51.718Z,8.90
2018-12-07T16:46:19.997Z,8.90
2018-12-07T16:48:48.423Z,8.90
2018-12-07T16:51:16.746Z,8.90
2018-12-07T16:53:45.202Z,8.90
2018-12-07T16:56:13.587Z,9.10
2018-12-07T16:58:41.892Z,9.20
2018-12-07T17:01:10.065Z,9.40
2018-12-07T17:03:38.452Z,9.50
2018-12-07T17:06:06.845Z,9.50
2018-12-07T17:08:35.062Z,9.50
2018-12-07T17:11:03.271Z,9.70
2018-12-07T17:13:31.985Z,9.70
2018-12-07T17:16:00.242Z,9.70
2018-12-07T17:18:28.805Z,9.90
2018-12-07T17:20:57.383Z,9.90
2018-12-07T17:23:25.868Z,9.90
2018-12-07T17:25:54.219Z,10.00
2018-12-07T17:28:22.868Z,10.00
2018-12-07T17:30:51.188Z,9.90
2018-12-07T17:33:19.446Z,9.90
2018-12-07T17:35:47.878Z,9.80
2018-12-07T17:38:16.387Z,9.80
2018-12-07T17:40:44.927Z,10.00
2018-12-07T17:43:13.260Z,10.00
2018-12-07T17:45:41.432Z,10.00
2018-12-07T17:48:09.646Z,10.10
2018-12-07T17:50:37.946Z,10.30
2018-12-07T17:53:06.510Z,10.40
2018-12-07T17:55:34.899Z,10.40
2018-12-07T17:58:03.349Z,10.40
2018-12-07T18:00:31.517Z,10.50
2018-12-07T18:02:59.667Z,10.50
2018-12-07T18:05:28.121Z,10.50
2018-12-07T18:07:56.714Z,10.50
2018-12-07T18:10:25.049Z,10.60
2018-12-07T18:12:53.464Z,10.50
2018-12-07T18:15:21.799Z,10.60
2018-12-07T18:17:50.121Z,10.60
2018-12-07T18:20:18.552Z,10.60
2018-12-07T18:22:46.790Z,10.60
2018-12-07T18:25:15.723Z,10.70
2018-12-07T18:27:44.007Z,10.70
2018-12-07T18:30:12.225Z,10.60
2018-12-07T18:32:40.576Z,10.70
2018-12-07T18:35:09.533Z,10.70
2018-12-07T18:37:37.763Z,10.70
2018-12-07T18:40:06.498Z,10.70
2018-12-07T18:42:34.870Z,10.70
2018-12-07T18:45:03.526Z,10.70
2018-12-07T18:47:32.007Z,10.70
2018-12-07T18:50:00.398Z,10.70
2018-12-07T18:52:28.732Z,10.70
2018-12-07T18:54:57.143Z,10.70
2018-12-07T18:57:28.639Z,10.70
2018-12-07T18:59:56.957Z,10.70
2018-12-07T19:02:25.242Z,10.70
2018-12-07T19:04:53.667Z,10.70
2018-12-07T19:07:22.108Z,10.60
2018-12-07T19:09:50.388Z,10.60
2018-12-07T19:12:18.666Z,10.60
2018-12-07T19:14:47.134Z,10.50
2018-12-07T19:17:15.573Z,10.50
2018-12-07T19:19:43.860Z,10.50
2018-12-07T19:22:11.991Z,10.50
2018-12-07T19:24:40.494Z,10.50
2018-12-07T19:27:08.907Z,10.50
2018-12-07T19:29:37.380Z,10.50
2018-12-07T19:32:05.884Z,10.40
2018-12-07T19:34:34.379Z,10.50
2018-12-07T19:37:02.979Z,10.40
2018-12-07T19:39:31.348Z,10.40
2018-12-07T19:41:59.766Z,10.40
2018-12-07T19:44:28.284Z,10.40
2018-12-07T19:46:57.089Z,10.30
2018-12-07T19:49:25.448Z,10.40
2018-12-07T19:51:53.942Z,10.40
2018-12-07T19:54:22.414Z,10.40
2018-12-07T19:56:50.827Z,10.40
2018-12-07T19:59:19.054Z,10.40
2018-12-07T20:01:47.233Z,10.50
2018-12-07T20:04:15.748Z,10.50
2018-12-07T20:06:44.260Z,10.50
2018-12-07T20:09:12.740Z,10.50
2018-12-07T20:11:41.008Z,10.50
2018-12-07T20:14:09.376Z,10.50
2018-12-07T20:16:37.771Z,10.60
2018-12-07T20:19:05.962Z,10.50
2018-12-07T20:21:34.130Z,10.50
2018-12-07T20:24:02.381Z,10.50
2018-12-07T20:26:30.874Z,10.60
2018-12-07T20:28:59.187Z,10.60
2018-12-07T20:31:27.628Z,10.60
2018-12-07T20:33:55.911Z,10.60
2018-12-07T20:36:24.324Z,10.60
2018-12-07T20:38:52.679Z,10.60
2018-12-07T20:41:21.227Z,10.60
2018-12-07T20:43:49.615Z,10.60
2018-12-07T20:46:18.260Z,10.50
2018-12-07T20:48:46.702Z,10.50
2018-12-07T20:51:14.953Z,10.50
2018-12-07T20:53:43.395Z,10.50
2018-12-07T20:56:11.646Z,10.40
2018-12-07T20:58:39.905Z,10.10
2018-12-07T21:01:08.279Z,9.90
2018-12-07T21:03:43.680Z,9.80
2018-12-07T21:06:41.886Z,9.70
2018-12-07T21:09:17.254Z,9.50
2018-12-07T21:11:46.690Z,9.50
2018-12-07T21:14:19.018Z,9.30
2018-12-07T21:17:07.277Z,9.30
2018-12-07T21:19:37.166Z,9.40
2018-12-07T21:22:05.720Z,9.30
2018-12-07T21:24:34.192Z,9.30
2018-12-07T21:27:02.883Z,9.30
2018-12-07T21:29:31.235Z,9.40
2018-12-07T21:32:02.142Z,9.40
2018-12-07T21:37:31.781Z,9.40
2018-12-07T21:40:03.655Z,9.40
2018-12-07T21:42:31.817Z,9.50
2018-12-07T21:44:59.947Z,9.50
2018-12-07T21:47:36.450Z,9.50
2018-12-07T21:50:08.930Z,9.50
2018-12-07T21:52:37.369Z,9.50
2018-12-07T21:55:05.740Z,9.50
2018-12-07T21:57:34.436Z,9.50
2018-12-07T22:00:04.161Z,9.50
2018-12-07T22:02:32.390Z,9.50
2018-12-07T22:05:00.610Z,9.50
2018-12-07T22:07:29.232Z,9.50
2018-12-07T22:09:57.464Z,9.40
2018-12-07T22:12:26.038Z,9.40
2018-12-07T22:14:54.411Z,9.30
2018-12-07T22:17:23.084Z,9.30
2018-12-07T22:19:51.458Z,9.30
2018-12-07T22:22:19.878Z,9.30
2018-12-07T22:24:48.100Z,9.30
2018-12-07T22:27:16.467Z,9.30
2018-12-07T22:29:44.661Z,9.30
2018-12-07T22:32:13.165Z,9.30
2018-12-07T22:34:41.593Z,9.30
2018-12-07T22:37:09.980Z,10.30
2018-12-07T22:39:38.193Z,10.10
2018-12-07T22:42:06.374Z,9.60
2018-12-07T22:44:34.930Z,9.50
2018-12-07T22:47:03.189Z,9.40
2018-12-07T22:49:31.353Z,9.30
2018-12-07T22:51:59.492Z,9.20
2018-12-07T22:54:27.661Z,9.20
2018-12-07T22:56:55.893Z,9.10
2018-12-07T22:59:24.051Z,9.00
2018-12-07T23:01:52.339Z,8.90
2018-12-07T23:04:20.499Z,8.80
2018-12-07T23:06:48.875Z,8.80
2018-12-07T23:09:17.029Z,8.70
2018-12-07T23:11:45.168Z,8.80
2018-12-07T23:14:13.340Z,8.80
2018-12-07T23:16:41.592Z,8.80
2018-12-07T23:19:09.862Z,8.80
2018-12-07T23:21:37.994Z,8.80
2018-12-07T23:24:06.228Z,8.80
2018-12-07T23:26:34.507Z,8.80
2018-12-07T23:29:02.668Z,8.80
2018-12-07T23:31:30.811Z,8.80
2018-12-07T23:33:58.975Z,8.80
2018-12-07T23:36:27.193Z,8.80
2018-12-07T23:38:55.617Z,8.80
2018-12-07T23:41:23.756Z,8.80
2018-12-07T23:43:51.918Z,8.80
2018-12-07T23:46:20.083Z,8.80
2018-12-07T23:48:48.266Z,8.60
2018-12-07T23:51:16.496Z,8.40
2018-12-07T23:53:44.662Z,8.00
2018-12-07T23:56:12.881Z,7.50
2018-12-07T23:58:41.045Z,7.30
